Time;durP1;ratioP1;P1;durP2;ratioP2;P2;SDS_P1;SDS_P2;PMS_P1;PMS_P2;Temp;Humidity;BMP_temperature;BMP_pressure;BME280_temperature;BME280_humidity;BME280_pressure;Samples;Min_cycle;Max_cycle;Signal;HPM_P1;HPM_P2
2022/01/06 00:00:29;;;;;;;109.47;97.53;;;5.10;96.30;;;;;;4991917;28;20063;-79
2022/01/06 00:02:56;;;;;;;108.70;96.82;;;5.10;96.40;;;;;;4990928;28;20541;-79
2022/01/06 00:05:23;;;;;;;109.45;97.70;;;5.10;96.40;;;;;;4943317;28;20508;-79
2022/01/06 00:07:50;;;;;;;109.30;97.53;;;5.10;96.40;;;;;;4959389;28;20524;-80
2022/01/06 00:10:17;;;;;;;108.05;96.45;;;5.20;96.50;;;;;;4991597;28;20099;-79
2022/01/06 00:12:50;;;;;;;;;;;5.20;96.50;;;;;;4959865;28;20585;-79
2022/01/06 00:15:59;;;;;;;108.57;96.30;;;5.20;96.50;;;;;;4984501;28;19927;-79
2022/01/06 00:18:39;;;;;;;110.40;98.47;;;5.20;96.50;;;;;;4954456;28;20056;-79
2022/01/06 00:23:51;;;;;;;109.78;97.78;;;5.20;96.80;;;;;;4956991;28;20083;-79
2022/01/06 00:26:18;;;;;;;108.70;97.00;;;5.10;96.80;;;;;;4939690;28;20052;-79
2022/01/06 00:28:46;;;;;;;112.22;97.35;;;5.10;96.60;;;;;;4939538;28;20058;-79
2022/01/06 00:31:13;;;;;;;113.15;100.50;;;5.10;96.70;;;;;;4939442;28;20058;-79
2022/01/06 00:33:40;;;;;;;;;;;5.10;96.70;;;;;;4957402;28;20058;-79
2022/01/06 00:36:07;;;;;;;111.15;98.90;;;5.10;96.70;;;;;;4940080;28;19927;-79
2022/01/06 00:38:33;;;;;;;;;;;5.10;96.70;;;;;;4940043;28;20066;-80
2022/01/06 00:41:00;;;;;;;111.22;99.15;;;5.10;96.70;;;;;;4940855;28;20029;-79
2022/01/06 00:43:27;;;;;;;112.88;98.57;;;5.10;96.70;;;;;;5025889;23;20084;-79
2022/01/06 00:45:56;;;;;;;112.03;98.80;;;5.10;96.70;;;;;;5034075;28;20048;-79
2022/01/06 00:48:23;;;;;;;109.68;97.15;;;5.10;96.70;;;;;;5034988;28;20056;-79
2022/01/06 00:50:50;;;;;;;111.45;98.20;;;5.10;96.70;;;;;;5033861;28;20146;-80
2022/01/06 00:53:17;;;;;;;109.65;97.22;;;5.10;96.70;;;;;;5034097;28;20081;-79
2022/01/06 00:55:44;;;;;;;110.15;98.15;;;5.10;96.70;;;;;;5033962;28;20681;-79
2022/01/06 00:58:11;;;;;;;;;;;5.10;96.70;;;;;;5033987;28;20077;-80
2022/01/06 01:00:40;;;;;;;110.35;98.35;;;5.00;96.70;;;;;;5017571;28;20023;-79
2022/01/06 01:03:11;;;;;;;108.78;96.78;;;5.00;96.70;;;;;;5033727;28;20483;-79
2022/01/06 01:05:39;;;;;;;112.43;99.35;;;5.00;96.70;;;;;;5033771;28;20061;-79
2022/01/06 01:08:06;;;;;;;115.95;100.20;;;5.00;96.70;;;;;;5033294;28;20056;-80
2022/01/06 01:10:34;;;;;;;112.70;100.57;;;5.00;96.80;;;;;;5033594;28;20058;-80
2022/01/06 01:13:01;;;;;;;112.03;99.85;;;5.00;96.80;;;;;;5016755;28;20052;-79
2022/01/06 01:15:28;;;;;;;;;;;5.00;96.80;;;;;;5035222;28;20064;-79
2022/01/06 01:18:04;;;;;;;111.97;99.93;;;4.90;96.70;;;;;;5033338;28;20315;-80
2022/01/06 01:20:33;;;;;;;;;;;4.90;96.70;;;;;;5017594;28;20053;-80
2022/01/06 01:27:22;;;;;;;112.00;99.88;;;4.80;96.70;;;;;;5036986;28;20046;-80
2022/01/06 01:29:58;;;;;;;116.80;99.82;;;4.70;96.70;;;;;;5032960;28;20092;-79
2022/01/06 01:32:30;;;;;;;113.50;99.40;;;4.70;96.80;;;;;;5033514;28;20058;-79
2022/01/06 01:35:00;;;;;;;111.43;99.40;;;4.70;96.80;;;;;;5033075;28;20046;-79
2022/01/06 01:37:30;;;;;;;111.18;99.07;;;4.70;96.90;;;;;;5016393;28;20053;-79
2022/01/06 01:39:57;;;;;;;112.38;100.15;;;4.60;96.90;;;;;;5033010;28;20070;-80
2022/01/06 01:42:24;;;;;;;;;;;4.60;96.90;;;;;;5032886;28;21161;-79
2022/01/06 01:44:52;;;;;;;116.90;99.53;;;4.60;96.90;;;;;;5033293;28;19930;-80
2022/01/06 01:47:29;;;;;;;113.25;96.78;;;4.50;96.90;;;;;;5016404;28;20054;-79
2022/01/06 01:50:09;;;;;;;113.65;99.28;;;4.50;96.90;;;;;;5032927;28;20053;-79
2022/01/06 01:52:37;;;;;;;114.00;98.00;;;4.50;97.00;;;;;;5033192;28;20112;-79
2022/01/06 01:55:05;;;;;;;112.40;99.97;;;4.40;96.90;;;;;;5032912;28;20054;-79
2022/01/06 01:57:32;;;;;;;111.68;98.03;;;4.40;97.00;;;;;;5032426;28;20058;-79
2022/01/06 01:59:59;;;;;;;116.80;99.25;;;4.40;97.00;;;;;;5032731;28;20049;-79
2022/01/06 02:02:28;;;;;;;114.32;98.43;;;4.40;97.10;;;;;;5032893;28;20802;-79
2022/01/06 02:04:55;;;;;;;116.20;100.47;;;4.40;97.10;;;;;;5016027;28;20504;-79
2022/01/06 02:07:22;;;;;;;115.97;100.93;;;4.30;97.10;;;;;;5031669;28;20052;-79
2022/01/06 02:09:50;;;;;;;;;;;4.30;97.00;;;;;;5032855;28;20053;-79
2022/01/06 02:12:25;;;;;;;123.47;103.10;;;4.30;97.00;;;;;;5031591;28;20015;-79
2022/01/06 02:14:52;;;;;;;118.75;99.82;;;4.30;97.00;;;;;;5032171;28;20506;-79
2022/01/06 02:17:19;;;;;;;116.00;100.20;;;4.30;97.10;;;;;;5015681;28;20134;-79
2022/01/06 02:19:54;;;;;;;111.45;99.22;;;4.30;97.10;;;;;;5032414;28;20056;-79
2022/01/06 02:22:21;;;;;;;117.38;100.22;;;4.30;97.10;;;;;;5032351;28;20050;-79
2022/01/06 02:24:48;;;;;;;117.18;98.90;;;4.30;97.10;;;;;;5033194;28;20046;-79
2022/01/06 02:27:15;;;;;;;114.03;100.90;;;4.30;97.00;;;;;;5035719;28;20483;-79
2022/01/06 02:29:43;;;;;;;112.72;98.80;;;4.30;97.10;;;;;;5037404;28;20062;-81
2022/01/06 02:32:14;;;;;;;115.55;98.82;;;4.30;97.10;;;;;;5019393;28;20472;-79
2022/01/06 02:34:41;;;;;;;113.10;100.05;;;4.30;97.00;;;;;;5037400;28;20060;-79
2022/01/06 02:37:10;;;;;;;116.72;99.97;;;4.30;96.90;;;;;;5019008;28;20050;-79
2022/01/06 02:39:37;;;;;;;118.53;99.53;;;4.30;96.90;;;;;;5035634;28;20065;-79
2022/01/06 02:42:04;;;;;;;;;;;4.20;96.80;;;;;;5035970;28;20081;-79
2022/01/06 02:44:31;;;;;;;114.03;99.05;;;4.20;96.80;;;;;;5019615;28;19929;-80
2022/01/06 02:46:58;;;;;;;;;;;4.10;96.80;;;;;;5035814;28;20045;-79
2022/01/06 02:49:25;;;;;;;113.82;99.63;;;4.10;96.80;;;;;;5035688;28;20032;-80
2022/01/06 02:51:52;;;;;;;117.70;101.05;;;4.10;96.80;;;;;;5035426;28;20432;-79
2022/01/06 02:54:22;;;;;;;113.28;100.90;;;4.10;96.90;;;;;;5035778;28;20133;-79
2022/01/06 02:56:49;;;;;;;115.70;99.43;;;4.10;96.90;;;;;;5035451;28;20413;-79
2022/01/06 02:59:17;;;;;;;113.90;99.30;;;4.10;96.90;;;;;;5035388;28;20050;-79
2022/01/06 03:01:45;;;;;;;114.93;98.30;;;4.00;96.80;;;;;;5035470;28;20053;-79
2022/01/06 03:04:13;;;;;;;111.95;98.35;;;4.00;96.90;;;;;;5019218;28;20046;-79
2022/01/06 03:06:42;;;;;;;113.78;99.65;;;4.00;96.90;;;;;;5018748;28;20700;-79
2022/01/06 03:09:09;;;;;;;112.70;98.18;;;4.00;96.90;;;;;;5035178;28;20049;-79
2022/01/06 03:11:42;;;;;;;113.60;99.63;;;4.00;96.80;;;;;;5018651;28;20100;-79
2022/01/06 03:14:09;;;;;;;114.65;100.53;;;4.00;96.90;;;;;;5035236;28;20038;-79
2022/01/06 03:16:36;;;;;;;111.68;99.28;;;4.00;96.90;;;;;;5035117;28;20049;-79
2022/01/06 03:19:03;;;;;;;;;;;4.00;96.90;;;;;;5019133;28;20503;-79
2022/01/06 03:21:30;;;;;;;114.70;99.18;;;4.00;96.80;;;;;;5035690;28;19980;-79
2022/01/06 03:23:57;;;;;;;112.63;97.95;;;4.00;96.80;;;;;;5018658;28;20132;-79
2022/01/06 03:26:24;;;;;;;113.43;98.32;;;4.00;96.80;;;;;;5035262;28;20495;-79
2022/01/06 03:28:53;;;;;;;113.47;97.85;;;4.00;96.80;;;;;;5035044;28;20060;-79
2022/01/06 03:31:20;;;;;;;114.30;99.35;;;4.00;96.80;;;;;;5034928;28;20057;-79
2022/01/06 03:33:47;;;;;;;113.13;100.75;;;4.00;96.70;;;;;;5034814;28;20054;-79
2022/01/06 03:36:15;;;;;;;110.82;98.57;;;4.00;96.70;;;;;;5033666;28;20126;-79
2022/01/06 03:38:42;;;;;;;111.63;98.20;;;4.00;96.70;;;;;;5018193;28;20076;-79
2022/01/06 03:41:09;;;;;;;110.38;97.47;;;4.00;96.70;;;;;;5034844;28;20060;-79
2022/01/06 03:43:35;;;;;;;;;;;4.00;96.70;;;;;;5018811;28;20081;-79
2022/01/06 03:46:04;;;;;;;118.60;99.78;;;4.00;96.70;;;;;;5018360;28;20411;-79
2022/01/06 03:48:31;;;;;;;111.85;99.53;;;4.00;96.70;;;;;;5034651;28;20042;-79
2022/01/06 03:50:58;;;;;;;110.97;98.85;;;4.00;96.70;;;;;;5018251;28;20054;-79
2022/01/06 03:53:25;;;;;;;110.22;98.18;;;4.00;96.60;;;;;;5035047;28;20087;-79
2022/01/06 03:55:52;;;;;;;111.22;99.22;;;4.00;96.60;;;;;;5034804;28;20060;-79
2022/01/06 03:58:19;;;;;;;;;;;3.90;96.50;;;;;;5034888;28;20145;-79
2022/01/06 04:00:46;;;;;;;114.70;99.22;;;3.90;96.50;;;;;;5034760;28;20384;-79
2022/01/06 04:03:14;;;;;;;113.70;100.03;;;3.90;96.50;;;;;;5034507;28;20133;-79
2022/01/06 04:05:43;;;;;;;113.25;100.20;;;3.90;96.50;;;;;;5034378;28;20136;-79
2022/01/06 04:08:10;;;;;;;112.93;100.90;;;3.90;96.50;;;;;;5034168;28;20058;-79
2022/01/06 04:10:37;;;;;;;112.15;99.85;;;3.90;96.40;;;;;;5034323;28;20057;-79
2022/01/06 04:13:04;;;;;;;111.78;99.70;;;3.90;96.50;;;;;;5034372;28;20054;-79
2022/01/06 04:15:30;;;;;;;114.20;100.15;;;3.90;96.40;;;;;;5034162;28;20054;-79
2022/01/06 04:17:58;;;;;;;114.03;99.65;;;3.90;96.40;;;;;;5034312;28;20064;-79
2022/01/06 04:20:26;;;;;;;112.63;100.10;;;3.90;96.40;;;;;;5034193;28;20048;-79
2022/01/06 04:22:53;;;;;;;111.82;99.97;;;3.80;96.30;;;;;;5034418;28;20137;-79
2022/01/06 04:25:20;;;;;;;;;;;3.80;96.30;;;;;;5034615;28;20058;-79
2022/01/06 04:27:47;;;;;;;111.43;99.25;;;3.80;96.30;;;;;;5034088;28;19926;-79
2022/01/06 04:30:14;;;;;;;112.78;100.43;;;3.80;96.40;;;;;;5032520;28;20140;-79
2022/01/06 04:32:41;;;;;;;;;;;3.80;96.40;;;;;;5034105;28;20522;-79
2022/01/06 04:35:09;;;;;;;113.30;100.80;;;3.80;96.30;;;;;;5033604;28;19926;-79
2022/01/06 04:37:38;;;;;;;117.55;98.68;;;3.80;96.30;;;;;;5033366;28;20144;-79
2022/01/06 04:40:07;;;;;;;110.95;98.65;;;3.70;96.30;;;;;;5033912;28;20488;-79
2022/01/06 04:42:34;;;;;;;111.50;99.25;;;3.70;96.30;;;;;;5033461;28;20053;-79
2022/01/06 04:45:01;;;;;;;111.93;99.78;;;3.70;96.20;;;;;;5033995;28;20087;-79
2022/01/06 04:47:28;;;;;;;;;;;3.70;96.40;;;;;;5033845;28;20138;-79
2022/01/06 04:49:55;;;;;;;114.38;99.55;;;3.70;96.20;;;;;;5034412;28;19925;-79
2022/01/06 04:52:22;;;;;;;114.70;99.20;;;3.70;96.20;;;;;;5033712;28;20536;-79
2022/01/06 04:54:50;;;;;;;111.90;98.68;;;3.70;96.10;;;;;;5033716;28;20061;-80
2022/01/06 04:57:17;;;;;;;112.55;99.95;;;3.70;95.90;;;;;;5033682;28;20050;-79
2022/01/06 04:59:44;;;;;;;114.35;100.05;;;3.70;95.90;;;;;;5033765;28;20093;-79
2022/01/06 05:02:11;;;;;;;112.45;100.40;;;3.60;95.80;;;;;;5033563;28;20050;-79
2022/01/06 05:04:38;;;;;;;;;;;3.60;95.80;;;;;;5034086;28;20078;-78
2022/01/06 05:07:05;;;;;;;115.85;99.45;;;3.50;95.80;;;;;;5033310;28;20351;-79
2022/01/06 05:09:32;;;;;;;110.70;98.93;;;3.50;95.80;;;;;;5033703;28;20189;-79
2022/01/06 05:12:01;;;;;;;111.57;99.10;;;3.50;96.00;;;;;;5033225;28;20050;-79
2022/01/06 05:14:28;;;;;;;111.60;99.18;;;3.40;95.80;;;;;;5033438;28;20129;-79
2022/01/06 05:16:56;;;;;;;110.47;98.38;;;3.40;95.90;;;;;;5033295;28;20050;-79
2022/01/06 05:19:24;;;;;;;110.07;97.90;;;3.40;95.90;;;;;;5033417;28;20053;-79
2022/01/06 05:21:52;;;;;;;110.60;98.55;;;3.30;96.00;;;;;;5033344;28;20073;-79
2022/01/06 05:24:19;;;;;;;118.40;98.88;;;3.30;96.00;;;;;;5033293;28;20132;-79
2022/01/06 05:26:47;;;;;;;111.43;99.30;;;3.30;96.00;;;;;;5033065;28;20736;-79
2022/01/06 05:29:16;;;;;;;114.07;99.25;;;3.30;96.10;;;;;;5033236;28;20061;-79
2022/01/06 05:31:43;;;;;;;110.15;97.80;;;3.30;96.10;;;;;;5033019;28;20885;-79
2022/01/06 05:34:10;;;;;;;112.05;98.03;;;3.20;96.10;;;;;;5033126;28;20054;-79
2022/01/06 05:36:37;;;;;;;110.60;98.68;;;3.20;96.10;;;;;;5016785;28;20050;-79
2022/01/06 05:39:05;;;;;;;;;;;3.30;96.00;;;;;;5033476;28;20050;-79
2022/01/06 05:41:32;;;;;;;111.25;96.70;;;3.20;96.00;;;;;;5017054;28;19930;-79
2022/01/06 05:43:59;;;;;;;116.35;97.57;;;3.20;96.00;;;;;;5032438;28;20534;-79
2022/01/06 05:46:28;;;;;;;109.18;97.57;;;3.20;96.00;;;;;;5032929;28;20701;-79
2022/01/06 05:48:58;;;;;;;114.35;98.85;;;3.10;96.00;;;;;;5033144;28;20148;-79
2022/01/06 05:51:25;;;;;;;112.00;99.38;;;3.10;96.00;;;;;;5016310;28;20176;-79
2022/01/06 05:53:53;;;;;;;;;;;3.10;96.10;;;;;;5033469;28;20049;-79
2022/01/06 05:56:20;;;;;;;110.72;96.30;;;3.00;96.00;;;;;;5033471;28;19978;-80
2022/01/06 05:58:47;;;;;;;;;;;3.00;96.00;;;;;;5033040;28;20053;-79
2022/01/06 06:01:14;;;;;;;110.22;97.35;;;3.00;96.10;;;;;;5015782;28;19929;-79
2022/01/06 06:03:43;;;;;;;108.68;96.75;;;3.00;96.10;;;;;;5035390;28;20052;-79
2022/01/06 06:06:10;;;;;;;114.78;97.82;;;3.00;96.10;;;;;;5016266;28;20054;-79
2022/01/06 06:08:37;;;;;;;;;;;3.00;96.20;;;;;;5032851;28;20060;-79
2022/01/06 06:11:03;;;;;;;;;;;3.00;96.20;;;;;;5033377;28;19937;-79
2022/01/06 06:13:30;;;;;;;;;;;2.90;96.10;;;;;;5033304;28;19926;-79
2022/01/06 06:15:57;;;;;;;;;;;2.90;96.10;;;;;;5016950;28;19926;-79
2022/01/06 06:18:24;;;;;;;110.65;95.43;;;2.90;96.20;;;;;;5032571;28;20008;-79
2022/01/06 06:20:53;;;;;;;;;;;2.90;96.20;;;;;;5032967;28;21072;-79
2022/01/06 06:23:20;;;;;;;107.40;95.50;;;2.80;96.10;;;;;;5032703;28;19926;-79
2022/01/06 06:25:47;;;;;;;;;;;2.80;96.20;;;;;;5032828;28;20050;-79
2022/01/06 06:28:14;;;;;;;;;;;2.80;96.20;;;;;;5034423;28;20016;-79
2022/01/06 06:30:41;;;;;;;115.35;96.78;;;2.80;96.20;;;;;;5032485;28;19929;-79
2022/01/06 06:33:07;;;;;;;;;;;2.80;96.30;;;;;;5016282;28;20054;-79
2022/01/06 06:35:34;;;;;;;114.68;96.03;;;2.80;96.20;;;;;;5032680;28;19925;-79
2022/01/06 06:38:03;;;;;;;117.70;96.88;;;2.80;96.30;;;;;;5032340;28;20093;-79
2022/01/06 06:40:30;;;;;;;110.43;96.65;;;2.80;96.30;;;;;;5031886;28;20086;-79
2022/01/06 06:42:57;;;;;;;109.57;96.78;;;2.70;96.20;;;;;;5032139;28;20053;-79
2022/01/06 06:45:23;;;;;;;;;;;2.70;96.20;;;;;;5032602;28;20058;-79
2022/01/06 06:47:51;;;;;;;115.78;96.53;;;2.70;96.20;;;;;;5015726;28;19926;-79
2022/01/06 06:50:21;;;;;;;112.35;96.78;;;2.70;96.40;;;;;;5032322;28;20058;-80
2022/01/06 06:53:14;;;;;;;112.90;97.00;;;2.70;96.30;;;;;;5033920;28;20050;-79
2022/01/06 06:55:42;;;;;;;113.05;97.55;;;2.70;96.30;;;;;;5032259;28;20144;-79
2022/01/06 06:58:09;;;;;;;110.35;96.75;;;2.70;96.40;;;;;;5015515;28;20086;-79
2022/01/06 07:00:36;;;;;;;;;;;2.70;96.40;;;;;;5032388;28;20053;-79
2022/01/06 07:03:04;;;;;;;114.90;95.65;;;2.70;96.30;;;;;;5015997;28;19947;-79
2022/01/06 07:05:31;;;;;;;110.90;97.53;;;2.70;96.30;;;;;;5032039;28;20136;-79
2022/01/06 07:07:58;;;;;;;113.50;97.10;;;2.70;96.20;;;;;;5031863;28;20443;-79
2022/01/06 07:10:25;;;;;;;112.97;97.25;;;2.70;96.20;;;;;;5033351;28;20510;-79
2022/01/06 07:12:53;;;;;;;110.80;96.82;;;2.70;96.20;;;;;;5035017;28;20052;-79
2022/01/06 07:15:21;;;;;;;108.85;96.45;;;2.70;96.20;;;;;;5034902;28;20060;-79
2022/01/06 07:17:48;;;;;;;115.63;97.40;;;2.70;96.20;;;;;;5035046;28;20050;-79
2022/01/06 07:20:15;;;;;;;112.53;97.43;;;2.70;96.20;;;;;;5034856;28;20046;-79
2022/01/06 07:22:42;;;;;;;;;;;2.70;96.30;;;;;;5035468;28;20054;-79
2022/01/06 07:25:09;;;;;;;;;;;2.60;96.20;;;;;;5035934;28;19925;-79
2022/01/06 07:27:36;;;;;;;117.85;98.35;;;2.70;96.20;;;;;;5034786;28;20031;-79
2022/01/06 07:30:07;;;;;;;114.43;96.90;;;2.70;96.20;;;;;;5034139;28;20053;-79
2022/01/06 07:32:42;;;;;;;115.43;98.55;;;2.60;96.20;;;;;;5034634;28;20077;-78
2022/01/06 07:35:09;;;;;;;115.70;97.50;;;2.70;96.30;;;;;;5034838;28;20050;-79
2022/01/06 07:37:36;;;;;;;116.60;97.20;;;2.60;96.20;;;;;;5034805;28;20058;-79
2022/01/06 07:40:04;;;;;;;112.47;96.97;;;2.60;96.20;;;;;;5034026;28;20057;-79
2022/01/06 07:42:31;;;;;;;115.13;98.00;;;2.60;96.20;;;;;;5034271;28;20054;-79
2022/01/06 07:44:59;;;;;;;114.55;97.50;;;2.60;96.20;;;;;;5034524;28;20137;-79
2022/01/06 07:47:29;;;;;;;113.95;97.72;;;2.60;96.30;;;;;;5035565;28;20775;-79
2022/01/06 07:49:56;;;;;;;124.15;100.78;;;2.60;96.30;;;;;;5029220;28;20081;-81
2022/01/06 07:52:23;;;;;;;115.82;96.55;;;2.60;96.30;;;;;;5026430;28;20140;-80
2022/01/06 07:54:50;;;;;;;;;;;2.60;96.30;;;;;;5016879;28;20049;-80
2022/01/06 07:57:17;;;;;;;;;;;2.60;96.30;;;;;;4998292;28;20411;-80
2022/01/06 07:59:44;;;;;;;;;;;2.50;96.30;;;;;;5014915;28;20399;-80
2022/01/06 08:02:11;;;;;;;;;;;2.60;96.30;;;;;;5013826;28;19999;-80
2022/01/06 08:04:39;;;;;;;;;;;2.50;96.30;;;;;;5001036;28;20032;-80
2022/01/06 08:07:06;;;;;;;117.45;99.25;;;2.60;96.30;;;;;;5016188;28;20395;-79
2022/01/06 08:09:33;;;;;;;;;;;2.60;96.30;;;;;;5020703;28;20058;-81
2022/01/06 08:12:00;;;;;;;118.25;99.97;;;2.50;96.40;;;;;;5017585;28;19925;-82
2022/01/06 08:14:29;;;;;;;118.70;98.45;;;2.50;96.40;;;;;;5013233;28;20058;-81
2022/01/06 08:16:57;;;;;;;117.07;99.18;;;2.50;96.40;;;;;;4998025;28;20054;-81
2022/01/06 08:19:24;;;;;;;112.82;96.95;;;2.50;96.40;;;;;;5013937;28;20046;-82
2022/01/06 08:21:53;;;;;;;110.38;97.88;;;2.40;96.40;;;;;;5013819;28;20137;-83
2022/01/06 08:24:20;;;;;;;113.05;97.88;;;2.50;96.50;;;;;;4997219;28;20058;-83
2022/01/06 08:26:47;;;;;;;110.50;97.80;;;2.40;96.50;;;;;;5013717;28;20133;-83
2022/01/06 08:29:14;;;;;;;;;;;2.40;96.70;;;;;;5006673;28;20374;-81
2022/01/06 08:31:41;;;;;;;115.07;98.82;;;2.40;96.50;;;;;;5023641;28;19947;-83
2022/01/06 08:34:08;;;;;;;;;;;2.40;96.60;;;;;;5024996;28;20057;-83
2022/01/06 08:36:35;;;;;;;117.47;97.72;;;2.40;96.60;;;;;;5017312;28;20432;-81
2022/01/06 08:39:04;;;;;;;;;;;2.40;96.70;;;;;;4968665;28;20046;-82
2022/01/06 08:41:31;;;;;;;114.35;96.32;;;2.40;96.60;;;;;;5034189;28;19972;-82
2022/01/06 08:43:58;;;;;;;;;;;2.40;96.70;;;;;;5033653;28;20137;-83
2022/01/06 08:46:25;;;;;;;112.90;96.65;;;2.40;96.70;;;;;;5033656;28;19925;-84
2022/01/06 08:48:52;;;;;;;;;;;2.40;96.70;;;;;;5033303;28;20066;-80
2022/01/06 08:51:20;;;;;;;;;;;2.40;96.70;;;;;;5043495;28;19931;-80
2022/01/06 08:53:46;;;;;;;113.18;97.32;;;2.40;96.70;;;;;;5053129;28;20405;-80
2022/01/06 08:56:15;;;;;;;114.03;98.45;;;2.40;96.70;;;;;;5052201;28;20136;-80
2022/01/06 08:58:42;;;;;;;120.18;99.50;;;2.40;96.80;;;;;;5052600;28;20053;-80
2022/01/06 09:01:09;;;;;;;111.40;97.40;;;2.40;96.80;;;;;;5052704;28;20061;-80
2022/01/06 09:03:36;;;;;;;118.30;99.50;;;2.50;96.90;;;;;;5051118;28;20061;-79
2022/01/06 09:06:03;;;;;;;113.75;99.40;;;2.50;97.00;;;;;;5033005;28;20513;-81
2022/01/06 09:08:30;;;;;;;;;;;2.50;97.00;;;;;;5031158;28;20050;-81
2022/01/06 09:10:57;;;;;;;111.78;96.85;;;2.60;97.00;;;;;;5052745;28;20035;-81
2022/01/06 09:13:26;;;;;;;116.82;98.40;;;2.60;97.00;;;;;;5053357;28;20106;-81
2022/01/06 09:15:53;;;;;;;113.72;97.50;;;2.60;96.90;;;;;;5017124;28;20054;-81
2022/01/06 09:18:20;;;;;;;114.80;97.82;;;2.60;96.90;;;;;;5016702;28;20550;-80
2022/01/06 09:20:47;;;;;;;116.35;98.57;;;2.70;96.90;;;;;;5016249;28;20136;-79
2022/01/06 09:23:14;;;;;;;112.28;98.90;;;2.70;96.90;;;;;;5033323;28;20057;-79
2022/01/06 09:25:43;;;;;;;114.20;100.07;;;2.70;96.90;;;;;;5032253;28;20104;-79
2022/01/06 09:28:10;;;;;;;112.00;97.32;;;2.70;96.90;;;;;;5016401;28;20142;-80
2022/01/06 09:30:39;;;;;;;119.90;100.93;;;2.80;97.00;;;;;;5016741;28;20093;-80
2022/01/06 09:33:06;;;;;;;117.32;100.13;;;2.80;97.00;;;;;;5016591;28;20050;-80
2022/01/06 09:35:33;;;;;;;119.53;100.68;;;2.90;97.00;;;;;;5031838;28;20050;-80
2022/01/06 09:38:00;;;;;;;124.38;99.55;;;2.90;97.10;;;;;;5015806;28;20050;-82
2022/01/06 09:40:27;;;;;;;110.53;97.88;;;2.90;97.10;;;;;;5032857;28;20100;-79
2022/01/06 09:42:55;;;;;;;113.93;100.18;;;3.00;97.10;;;;;;5031444;28;20177;-79
2022/01/06 09:45:25;;;;;;;114.45;98.97;;;3.00;97.10;;;;;;5032801;28;20054;-81
2022/01/06 09:47:54;;;;;;;116.93;99.60;;;3.00;97.10;;;;;;5032630;28;20538;-81
2022/01/06 09:50:22;;;;;;;114.82;98.65;;;3.10;97.20;;;;;;5032621;28;20050;-80
2022/01/06 09:52:50;;;;;;;113.72;99.75;;;3.10;97.20;;;;;;5032258;28;20108;-82
2022/01/06 09:55:19;;;;;;;112.22;99.80;;;3.20;97.20;;;;;;5033153;28;20058;-81
2022/01/06 09:58:00;;;;;;;116.28;99.55;;;3.20;97.20;;;;;;5032174;28;20081;-79
2022/01/06 10:00:28;;;;;;;112.65;99.32;;;3.20;97.30;;;;;;5051611;28;20050;-81
2022/01/06 10:02:58;;;;;;;116.20;98.45;;;3.30;97.30;;;;;;5035991;28;20136;-82
2022/01/06 10:05:26;;;;;;;123.60;100.80;;;3.30;97.40;;;;;;5035995;28;20136;-82
2022/01/06 10:08:26;;;;;;;120.40;101.05;;;3.40;97.40;;;;;;5035479;28;20056;-81
2022/01/06 10:11:07;;;;;;;118.45;99.45;;;3.40;97.50;;;;;;5032339;28;20056;-82
2022/01/06 10:13:35;;;;;;;122.03;98.70;;;3.50;97.50;;;;;;5023802;28;20137;-82
2022/01/06 10:16:12;;;;;;;116.20;98.47;;;3.50;97.50;;;;;;5032692;28;20046;-83
2022/01/06 10:18:41;;;;;;;117.70;97.90;;;3.60;97.60;;;;;;5017151;28;20050;-80
2022/01/06 10:21:15;;;;;;;114.20;99.65;;;3.60;97.60;;;;;;5052376;28;20042;-82
2022/01/06 10:23:42;;;;;;;119.50;98.95;;;3.70;97.70;;;;;;5052573;28;20599;-80
2022/01/06 10:26:14;;;;;;;115.47;98.20;;;3.70;97.80;;;;;;5051792;28;20057;-80
2022/01/06 10:28:41;;;;;;;117.80;98.28;;;3.80;97.70;;;;;;5052373;28;20054;-81
2022/01/06 10:31:09;;;;;;;111.68;99.60;;;3.90;97.70;;;;;;5052057;28;20081;-80
2022/01/06 10:33:39;;;;;;;114.78;99.22;;;4.00;97.70;;;;;;5051518;28;20061;-78
2022/01/06 10:39:55;;;;;;;110.88;98.78;;;4.10;97.70;;;;;;5029802;28;20054;-80
2022/01/06 10:42:23;;;;;;;112.70;100.22;;;4.20;97.70;;;;;;5009865;28;20050;-80
2022/01/06 10:44:53;;;;;;;111.40;99.18;;;4.30;97.70;;;;;;5015475;28;20129;-80
2022/01/06 10:47:31;;;;;;;113.80;100.00;;;4.40;97.60;;;;;;5002151;28;20112;-80
2022/01/06 10:50:14;;;;;;;114.03;101.43;;;4.50;97.40;;;;;;5036730;28;20069;-80
2022/01/06 10:52:43;;;;;;;117.32;100.82;;;4.60;97.40;;;;;;5018084;28;20064;-79
2022/01/06 10:55:14;;;;;;;116.30;100.28;;;4.60;97.30;;;;;;4998932;28;20081;-80
2022/01/06 10:57:52;;;;;;;115.15;100.63;;;4.70;97.20;;;;;;5015258;28;20047;-79
2022/01/06 11:00:20;;;;;;;112.93;100.65;;;4.80;97.10;;;;;;4999119;28;20487;-79
2022/01/06 11:02:47;;;;;;;114.35;101.57;;;4.90;96.90;;;;;;4998972;28;20054;-77
2022/01/06 11:05:14;;;;;;;116.60;103.70;;;5.00;96.70;;;;;;4999963;28;20058;-79
2022/01/06 11:07:41;;;;;;;;;;;5.10;96.70;;;;;;5018522;28;20137;-79
2022/01/06 11:10:14;;;;;;;114.10;101.55;;;5.20;96.70;;;;;;5005528;28;20024;-79
2022/01/06 11:12:43;;;;;;;111.03;99.18;;;5.20;96.70;;;;;;5018052;28;20054;-79
2022/01/06 11:15:11;;;;;;;112.32;100.00;;;5.30;96.80;;;;;;5007784;28;20057;-79
2022/01/06 11:17:39;;;;;;;120.30;101.65;;;5.30;96.80;;;;;;5016308;28;20058;-79
2022/01/06 11:20:07;;;;;;;113.93;100.97;;;5.40;96.70;;;;;;4998575;28;20072;-79
2022/01/06 11:22:34;;;;;;;114.82;100.75;;;5.50;96.60;;;;;;4982070;28;20488;-79
2022/01/06 11:25:02;;;;;;;119.15;101.97;;;5.60;96.60;;;;;;5031300;28;20058;-79
2022/01/06 11:27:32;;;;;;;112.47;100.22;;;5.70;96.40;;;;;;4998404;28;20129;-79
2022/01/06 11:30:11;;;;;;;113.93;101.18;;;5.70;96.20;;;;;;4998751;28;20054;-79
2022/01/06 11:32:38;;;;;;;114.93;102.38;;;5.80;96.10;;;;;;4997778;28;20130;-79
2022/01/06 11:35:11;;;;;;;113.72;101.47;;;5.90;96.00;;;;;;5010383;28;20057;-79
2022/01/06 11:37:44;;;;;;;119.72;106.78;;;5.90;95.90;;;;;;4993463;28;20160;-79
2022/01/06 11:40:13;;;;;;;114.85;102.80;;;6.00;96.10;;;;;;5015133;28;20081;-79
2022/01/06 11:42:40;;;;;;;115.63;103.80;;;6.00;96.10;;;;;;4996660;28;20058;-79
2022/01/06 11:45:19;;;;;;;115.63;103.53;;;6.00;96.00;;;;;;4997702;28;20069;-80
2022/01/06 11:47:47;;;;;;;114.57;102.03;;;6.10;96.00;;;;;;4998108;28;20050;-79
2022/01/06 11:50:16;;;;;;;115.53;103.07;;;6.10;96.00;;;;;;4998063;28;20141;-79
2022/01/06 11:52:53;;;;;;;114.22;102.13;;;6.10;95.90;;;;;;4998287;28;20054;-79
2022/01/06 11:55:22;;;;;;;116.43;104.03;;;6.20;96.10;;;;;;4998075;28;20061;-80
2022/01/06 11:57:49;;;;;;;116.00;103.60;;;6.20;96.20;;;;;;4980350;28;20058;-79
2022/01/06 12:00:22;;;;;;;114.97;102.75;;;6.20;96.30;;;;;;5016085;28;20053;-79
2022/01/06 12:03:01;;;;;;;114.47;101.93;;;6.30;96.20;;;;;;5017500;28;21090;-79
2022/01/06 12:05:40;;;;;;;114.82;102.53;;;6.40;96.00;;;;;;4996029;28;20110;-80
2022/01/06 12:08:07;;;;;;;114.63;102.53;;;6.40;95.90;;;;;;4978068;28;20047;-80
2022/01/06 12:10:39;;;;;;;116.45;104.43;;;6.50;96.10;;;;;;4988631;28;20125;-80
2022/01/06 12:13:06;;;;;;;114.22;101.93;;;6.50;96.20;;;;;;4980263;28;20113;-80
2022/01/06 12:15:46;;;;;;;114.68;102.07;;;6.60;96.20;;;;;;4981419;28;20055;-79
2022/01/06 12:18:18;;;;;;;116.88;104.15;;;6.70;96.00;;;;;;5013516;28;20109;-79
2022/01/06 12:20:46;;;;;;;115.05;102.57;;;6.70;96.00;;;;;;4997455;28;20125;-81
2022/01/06 12:23:13;;;;;;;116.20;102.85;;;6.70;95.90;;;;;;4997542;28;20058;-81
2022/01/06 12:25:41;;;;;;;115.68;102.55;;;6.80;96.00;;;;;;4990056;28;21813;-83
2022/01/06 12:28:10;;;;;;;115.43;103.15;;;6.90;96.20;;;;;;4997528;28;20109;-83
2022/01/06 12:30:39;;;;;;;114.90;102.68;;;6.90;96.20;;;;;;4997811;28;20050;-83
2022/01/06 12:33:07;;;;;;;114.63;101.32;;;6.90;96.10;;;;;;4981728;28;20129;-83
2022/01/06 12:35:43;;;;;;;114.43;101.97;;;7.00;95.90;;;;;;5013640;28;20432;-82
2022/01/06 12:38:11;;;;;;;114.45;102.57;;;7.00;95.90;;;;;;4997245;28;20149;-84
2022/01/06 12:40:40;;;;;;;115.28;103.10;;;7.00;95.90;;;;;;4981899;28;20552;-84
2022/01/06 12:43:18;;;;;;;115.15;102.72;;;7.10;95.70;;;;;;4989152;28;20528;-84
2022/01/06 12:46:00;;;;;;;115.20;102.80;;;7.10;95.40;;;;;;5006065;28;20078;-85
2022/01/06 12:48:30;;;;;;;113.95;101.65;;;7.10;95.30;;;;;;4997479;28;20046;-85
2022/01/06 12:50:58;;;;;;;115.03;103.07;;;7.10;95.30;;;;;;4994300;28;20046;-83
2022/01/06 12:53:28;;;;;;;114.72;102.63;;;7.10;95.20;;;;;;4961348;28;20059;-82
2022/01/06 12:55:55;;;;;;;114.25;102.45;;;7.20;94.90;;;;;;4962562;28;20061;-84
2022/01/06 12:58:27;;;;;;;118.80;106.10;;;7.20;94.90;;;;;;4998933;28;20083;-84